createdAt,value
2019-01-17T00:02:22.821Z,88.91
2019-01-17T00:05:51.771Z,88.83
2019-01-17T00:09:02.213Z,89.73
2019-01-17T00:12:23.871Z,89.89
2019-01-17T00:15:49.753Z,90.29
2019-01-17T00:19:11.385Z,90.98
2019-01-17T00:22:52.722Z,90.45
2019-01-17T00:26:21.403Z,90.86
2019-01-17T00:29:53.396Z,90.77
2019-01-17T00:33:14.673Z,90.97
2019-01-17T00:36:43.366Z,90.66
2019-01-17T00:40:05.179Z,90.17
2019-01-17T00:43:30.890Z,91.00
2019-01-17T00:46:56.541Z,90.38
2019-01-17T00:50:18.778Z,90.06
2019-01-17T00:53:40.903Z,89.46
2019-01-17T00:57:00.001Z,89.33
2019-01-17T01:00:12.993Z,89.48
2019-01-17T01:03:25.835Z,89.12
2019-01-17T01:07:03.874Z,89.29
2019-01-17T01:10:41.234Z,89.24
2019-01-17T01:14:16.448Z,89.29
2019-01-17T01:17:27.022Z,89.91
2019-01-17T01:20:48.025Z,89.62
2019-01-17T01:24:23.234Z,89.81
2019-01-17T01:27:45.933Z,89.61
2019-01-17T01:31:07.737Z,90.03
2019-01-17T01:34:29.521Z,89.83
2019-01-17T01:37:51.102Z,89.01
2019-01-17T01:41:06.503Z,88.42
2019-01-17T01:44:28.251Z,87.90
2019-01-17T01:47:42.174Z,87.35
2019-01-17T01:50:58.178Z,88.18
2019-01-17T01:54:02.009Z,87.36
2019-01-17T01:57:05.950Z,87.94
2019-01-17T02:00:10.665Z,87.74
2019-01-17T02:03:14.477Z,87.92
2019-01-17T02:06:18.301Z,87.06
2019-01-17T02:09:22.287Z,86.69
2019-01-17T02:12:26.191Z,85.77
2019-01-17T02:15:30.275Z,85.18
2019-01-17T02:18:34.074Z,84.86
2019-01-17T02:21:38.073Z,85.28
2019-01-17T02:24:41.882Z,85.41
2019-01-17T02:27:45.740Z,86.22
2019-01-17T02:30:49.703Z,87.59
2019-01-17T02:33:53.534Z,88.21
2019-01-17T02:36:57.349Z,88.45
2019-01-17T02:40:01.265Z,89.25
2019-01-17T02:43:05.138Z,89.63
2019-01-17T02:46:09.046Z,90.29
2019-01-17T02:49:12.860Z,90.50
2019-01-17T02:52:16.681Z,90.64
2019-01-17T02:55:20.472Z,90.88
2019-01-17T02:58:24.307Z,90.71
2019-01-17T03:01:28.291Z,91.17
2019-01-17T03:04:32.085Z,90.88
2019-01-17T03:07:36.271Z,90.66
2019-01-17T03:10:40.172Z,90.74
2019-01-17T03:13:44.016Z,91.04
2019-01-17T03:16:47.986Z,90.74
2019-01-17T03:19:51.881Z,89.82
2019-01-17T03:22:55.808Z,89.51
2019-01-17T03:25:59.617Z,89.32
2019-01-17T03:29:03.504Z,89.23
2019-01-17T03:32:07.387Z,88.93
2019-01-17T03:35:11.552Z,89.17
2019-01-17T03:38:15.429Z,88.85
2019-01-17T03:41:19.407Z,89.09
2019-01-17T03:44:23.323Z,89.74
2019-01-17T03:47:27.234Z,90.16
2019-01-17T03:50:31.181Z,90.23
2019-01-17T03:53:35.000Z,90.47
2019-01-17T03:56:38.907Z,90.91
2019-01-17T03:59:42.852Z,90.59
2019-01-17T04:02:46.827Z,89.88
2019-01-17T04:05:50.693Z,89.73
2019-01-17T04:08:54.581Z,88.87
2019-01-17T04:11:58.467Z,88.63
2019-01-17T04:15:02.517Z,88.76
2019-01-17T04:18:06.558Z,88.15
2019-01-17T04:21:10.481Z,87.17
2019-01-17T04:24:14.336Z,87.36
2019-01-17T04:27:18.324Z,86.69
2019-01-17T04:30:22.264Z,86.86
2019-01-17T04:33:26.147Z,86.99
2019-01-17T04:36:30.028Z,87.05
2019-01-17T04:39:33.871Z,86.85
2019-01-17T04:42:37.802Z,86.60
2019-01-17T04:45:41.607Z,87.35
2019-01-17T04:48:45.439Z,87.35
2019-01-17T04:51:49.307Z,87.67
2019-01-17T04:54:53.149Z,87.82
2019-01-17T04:57:57.015Z,88.40
2019-01-17T05:01:00.850Z,88.46
2019-01-17T05:04:04.867Z,89.39
2019-01-17T05:07:08.804Z,89.48
2019-01-17T05:10:13.314Z,89.86
2019-01-17T05:13:17.223Z,90.02
2019-01-17T05:16:21.177Z,90.04
2019-01-17T05:19:25.026Z,90.15
2019-01-17T05:22:28.846Z,89.46
2019-01-17T05:25:32.661Z,89.39
2019-01-17T05:28:36.558Z,89.14
2019-01-17T05:31:40.456Z,88.68
2019-01-17T05:34:44.330Z,89.24
2019-01-17T05:37:48.280Z,89.28
2019-01-17T05:40:52.086Z,89.08
2019-01-17T05:43:55.990Z,88.91
2019-01-17T05:46:59.981Z,88.74
2019-01-17T05:50:04.659Z,88.41
2019-01-17T05:53:08.475Z,87.45
2019-01-17T05:56:12.380Z,87.14
2019-01-17T05:59:16.169Z,85.97
2019-01-17T06:02:20.010Z,86.13
2019-01-17T06:05:23.822Z,85.10
2019-01-17T06:08:27.669Z,84.67
2019-01-17T06:11:31.473Z,85.07
2019-01-17T06:14:35.294Z,85.34
2019-01-17T06:17:39.256Z,85.75
2019-01-17T06:20:43.051Z,86.45
2019-01-17T06:23:46.904Z,86.06
2019-01-17T06:26:50.723Z,86.12
2019-01-17T06:29:54.534Z,86.07
2019-01-17T06:32:58.501Z,86.31
2019-01-17T06:36:02.486Z,85.82
2019-01-17T06:39:08.271Z,85.79
2019-01-17T06:42:12.114Z,86.51
2019-01-17T06:45:15.982Z,86.03
2019-01-17T06:48:19.876Z,85.50
2019-01-17T06:51:23.784Z,84.40
2019-01-17T06:54:27.768Z,83.57
2019-01-17T06:57:31.581Z,83.01
2019-01-17T07:00:35.471Z,82.83
2019-01-17T07:03:39.268Z,83.36
2019-01-17T07:06:43.236Z,83.16
2019-01-17T07:09:47.096Z,83.07
2019-01-17T07:12:50.990Z,82.91
2019-01-17T07:15:54.803Z,84.02
2019-01-17T07:18:58.720Z,84.91
2019-01-17T07:22:02.597Z,85.02
2019-01-17T07:25:07.437Z,84.56
2019-01-17T07:28:11.333Z,84.69
2019-01-17T07:31:15.292Z,85.73
2019-01-17T07:34:19.208Z,85.77
2019-01-17T07:37:23.684Z,86.33
2019-01-17T07:40:27.619Z,87.23
2019-01-17T07:43:31.674Z,87.91
2019-01-17T07:46:36.546Z,87.25
2019-01-17T07:49:40.547Z,87.19
2019-01-17T07:52:44.603Z,87.73
2019-01-17T07:55:48.491Z,87.22
2019-01-17T07:58:52.296Z,88.03
2019-01-17T08:01:56.170Z,88.02
2019-01-17T08:05:00.216Z,87.36
2019-01-17T08:08:04.388Z,88.27
2019-01-17T08:11:08.270Z,88.45
2019-01-17T08:14:12.269Z,88.72
2019-01-17T08:17:16.150Z,88.75
2019-01-17T08:20:22.436Z,88.96
2019-01-17T08:23:26.222Z,88.92
2019-01-17T08:26:30.108Z,89.44
2019-01-17T08:29:34.094Z,88.36
2019-01-17T08:32:37.955Z,87.80
2019-01-17T08:35:41.850Z,86.90
2019-01-17T08:38:45.726Z,87.50
2019-01-17T08:41:49.625Z,87.42
2019-01-17T08:44:53.899Z,86.44
2019-01-17T08:47:58.205Z,86.79
2019-01-17T08:51:02.292Z,86.80
2019-01-17T08:54:06.235Z,86.40
2019-01-17T08:57:10.238Z,86.26
2019-01-17T09:00:17.245Z,86.37
2019-01-17T09:03:21.126Z,86.43
2019-01-17T09:06:24.938Z,86.48
2019-01-17T09:09:28.830Z,87.54
2019-01-17T09:12:32.706Z,88.51
2019-01-17T09:15:36.850Z,88.46
2019-01-17T09:18:40.635Z,88.28
2019-01-17T09:21:44.525Z,86.94
2019-01-17T09:24:48.340Z,87.07
2019-01-17T09:27:52.315Z,88.15
2019-01-17T09:30:56.234Z,87.19
2019-01-17T09:34:00.404Z,86.13
2019-01-17T09:37:04.357Z,87.31
2019-01-17T09:40:10.933Z,88.11
2019-01-17T09:43:14.744Z,88.33
2019-01-17T09:46:18.679Z,88.44
2019-01-17T09:49:22.764Z,87.87
2019-01-17T09:52:27.288Z,87.62
2019-01-17T09:55:31.344Z,86.98
2019-01-17T09:58:35.151Z,86.47
2019-01-17T10:01:39.107Z,87.10
2019-01-17T10:04:43.396Z,87.51
2019-01-17T10:07:47.464Z,87.97
2019-01-17T10:10:51.865Z,88.75
2019-01-17T10:13:55.956Z,88.20
2019-01-17T10:17:34.934Z,88.24
2019-01-17T10:21:14.342Z,88.12
2019-01-17T10:24:48.209Z,88.73
2019-01-17T10:28:32.639Z,87.68
2019-01-17T10:32:00.764Z,88.18
2019-01-17T10:35:47.848Z,87.88
2019-01-17T10:39:38.633Z,87.94
2019-01-17T10:43:35.304Z,88.24
2019-01-17T10:47:41.555Z,88.09
2019-01-17T10:51:29.701Z,88.33
2019-01-17T10:55:29.194Z,88.06
2019-01-17T10:58:45.613Z,89.27
2019-01-17T11:02:54.622Z,88.81
2019-01-17T11:06:14.062Z,89.20
2019-01-17T11:09:51.718Z,89.35
2019-01-17T11:13:09.050Z,89.37
2019-01-17T11:16:38.453Z,89.74
2019-01-17T11:20:14.526Z,89.79
2019-01-17T11:23:47.993Z,90.12
2019-01-17T11:27:34.811Z,88.52
2019-01-17T11:30:59.411Z,88.79
2019-01-17T11:34:19.052Z,88.75
2019-01-17T11:38:05.864Z,86.96
2019-01-17T11:41:25.957Z,86.10
2019-01-17T11:45:02.502Z,85.74
2019-01-17T11:48:59.246Z,85.83
2019-01-17T11:52:52.166Z,86.23
2019-01-17T11:56:51.938Z,86.97
2019-01-17T12:00:45.239Z,88.15
2019-01-17T12:04:09.032Z,88.77
2019-01-17T12:07:17.216Z,88.50
2019-01-17T12:10:21.272Z,88.18
2019-01-17T12:13:25.149Z,88.26
2019-01-17T12:16:29.076Z,87.13
2019-01-17T12:19:32.950Z,86.96
2019-01-17T12:22:36.837Z,86.10
2019-01-17T12:25:40.758Z,85.51
2019-01-17T12:28:44.558Z,86.00
2019-01-17T12:31:48.482Z,85.03
2019-01-17T12:34:52.380Z,83.77
2019-01-17T12:37:56.185Z,82.02
2019-01-17T12:41:00.021Z,81.67
2019-01-17T12:44:04.071Z,79.92
2019-01-17T12:47:08.031Z,80.20
2019-01-17T12:50:15.802Z,80.43
2019-01-17T12:53:19.598Z,79.11
2019-01-17T12:56:23.500Z,79.33
2019-01-17T12:59:27.328Z,79.99
2019-01-17T13:02:31.222Z,80.45
2019-01-17T13:05:35.196Z,80.87
2019-01-17T13:08:39.067Z,81.42
2019-01-17T13:11:43.064Z,81.89
2019-01-17T13:14:46.876Z,82.11
2019-01-17T13:17:50.772Z,82.38
2019-01-17T13:20:54.573Z,83.08
2019-01-17T13:23:58.398Z,83.37
2019-01-17T13:27:02.220Z,83.85
2019-01-17T13:30:10.189Z,83.60
2019-01-17T13:33:14.076Z,83.70
2019-01-17T13:36:17.878Z,83.43
2019-01-17T13:39:21.781Z,83.64
2019-01-17T13:42:25.954Z,84.29
2019-01-17T13:45:30.717Z,84.14
2019-01-17T13:48:34.599Z,83.78
2019-01-17T13:51:38.605Z,83.98
2019-01-17T13:54:42.554Z,83.61
2019-01-17T13:57:46.531Z,83.53
2019-01-17T14:00:50.441Z,82.59
2019-01-17T14:03:54.279Z,81.77
2019-01-17T14:06:58.090Z,81.34
2019-01-17T14:10:02.028Z,81.61
2019-01-17T14:13:05.827Z,82.23
2019-01-17T14:16:09.939Z,82.52
2019-01-17T14:19:14.070Z,82.77
2019-01-17T14:22:18.357Z,82.75
2019-01-17T14:25:22.251Z,83.52
2019-01-17T14:28:26.171Z,84.48
2019-01-17T14:31:30.255Z,83.94
2019-01-17T14:34:34.163Z,84.44
2019-01-17T14:37:38.043Z,84.87
2019-01-17T14:40:41.954Z,85.68
2019-01-17T14:43:46.143Z,85.99
2019-01-17T14:46:50.125Z,86.68
2019-01-17T14:49:53.999Z,87.03
2019-01-17T14:52:57.922Z,87.12
2019-01-17T14:56:01.881Z,87.21
2019-01-17T14:59:05.701Z,86.28
2019-01-17T15:02:09.634Z,86.08
2019-01-17T15:05:13.702Z,85.83
2019-01-17T15:08:17.596Z,85.67
2019-01-17T15:11:21.481Z,85.33
2019-01-17T15:14:25.290Z,85.34
2019-01-17T15:17:29.563Z,85.52
2019-01-17T15:20:33.540Z,85.04
2019-01-17T15:23:37.360Z,85.03
2019-01-17T15:26:41.269Z,84.19
2019-01-17T15:29:45.386Z,84.76
2019-01-17T15:32:49.823Z,84.89
2019-01-17T15:35:54.182Z,84.55
2019-01-17T15:38:58.002Z,84.36
2019-01-17T15:42:01.925Z,84.55
2019-01-17T15:45:06.695Z,84.85
2019-01-17T15:48:10.520Z,85.05
2019-01-17T15:51:14.403Z,84.90
2019-01-17T15:54:18.303Z,85.03
2019-01-17T15:57:22.266Z,84.70
2019-01-17T16:00:31.768Z,84.35
2019-01-17T16:03:35.694Z,84.58
2019-01-17T16:06:39.601Z,84.54
2019-01-17T16:09:43.907Z,84.55
2019-01-17T16:12:47.855Z,84.58
2019-01-17T16:15:51.676Z,84.81
2019-01-17T16:18:55.581Z,84.98
2019-01-17T16:21:59.643Z,85.27
2019-01-17T16:25:06.062Z,85.54
2019-01-17T16:28:09.888Z,85.41
2019-01-17T16:31:13.687Z,85.34
2019-01-17T16:34:17.585Z,83.81
2019-01-17T16:37:21.870Z,83.75
2019-01-17T16:40:25.908Z,84.04
2019-01-17T16:43:30.213Z,84.90
2019-01-17T16:46:34.505Z,85.12
2019-01-17T16:49:38.594Z,84.02
2019-01-17T16:52:42.879Z,82.80
2019-01-17T16:55:47.172Z,82.81
2019-01-17T16:58:51.242Z,82.81
2019-01-17T17:01:55.518Z,83.04
2019-01-17T17:04:59.309Z,83.99
2019-01-17T17:08:03.663Z,85.33
2019-01-17T17:11:07.959Z,85.55
2019-01-17T17:14:12.089Z,86.04
2019-01-17T17:17:16.377Z,86.15
2019-01-17T17:20:21.266Z,86.25
2019-01-17T17:23:25.210Z,85.82
2019-01-17T17:26:29.118Z,84.76
2019-01-17T17:29:32.913Z,85.27
2019-01-17T17:32:36.779Z,85.99
2019-01-17T17:35:40.639Z,86.44
2019-01-17T17:38:44.440Z,85.49
2019-01-17T17:41:48.378Z,85.66
2019-01-17T17:44:52.455Z,86.28
2019-01-17T17:47:58.139Z,86.84
2019-01-17T17:51:02.115Z,87.10
2019-01-17T17:54:06.078Z,87.26
2019-01-17T17:57:10.163Z,87.58
2019-01-17T18:00:22.165Z,87.20
2019-01-17T18:03:26.229Z,87.42
2019-01-17T18:06:30.093Z,87.16
2019-01-17T18:09:34.172Z,86.59
2019-01-17T18:12:38.737Z,86.71
2019-01-17T18:15:42.839Z,86.93
2019-01-17T18:18:46.999Z,87.42
2019-01-17T18:21:51.057Z,87.78
2019-01-17T18:24:54.876Z,87.20
2019-01-17T18:27:58.795Z,87.76
2019-01-17T18:31:02.679Z,88.62
2019-01-17T18:34:06.658Z,88.80
2019-01-17T18:37:10.501Z,89.15
2019-01-17T18:40:15.871Z,89.10
2019-01-17T18:43:20.158Z,89.28
2019-01-17T18:46:24.697Z,89.05
2019-01-17T18:49:28.626Z,88.65
2019-01-17T18:52:32.696Z,88.62
2019-01-17T18:55:37.162Z,88.70
2019-01-17T18:58:41.139Z,88.87
2019-01-17T19:01:45.325Z,89.28
2019-01-17T19:04:49.191Z,89.96
2019-01-17T19:07:53.175Z,89.93
2019-01-17T19:10:57.151Z,89.81
2019-01-17T19:14:01.047Z,89.71
2019-01-17T19:17:05.029Z,89.02
2019-01-17T19:20:11.309Z,88.81
2019-01-17T19:23:15.118Z,88.52
2019-01-17T19:26:18.935Z,88.15
2019-01-17T19:29:22.899Z,88.71
2019-01-17T19:32:26.779Z,88.46
2019-01-17T19:35:30.826Z,88.14
2019-01-17T19:38:34.716Z,87.90
2019-01-17T19:41:38.658Z,87.82
2019-01-17T19:44:42.648Z,87.47
2019-01-17T19:47:46.613Z,87.11
2019-01-17T19:50:50.487Z,87.20
2019-01-17T19:53:54.484Z,86.86
2019-01-17T19:56:58.391Z,87.42
2019-01-17T20:00:02.380Z,87.55
2019-01-17T20:03:06.680Z,87.34
2019-01-17T20:06:10.647Z,87.37
2019-01-17T20:09:16.505Z,87.30
2019-01-17T20:12:20.482Z,87.24
2019-01-17T20:15:24.490Z,86.75
2019-01-17T20:18:28.442Z,86.41
2019-01-17T20:21:32.307Z,86.79
2019-01-17T20:24:36.204Z,86.42
2019-01-17T20:27:40.147Z,85.55
2019-01-17T20:30:44.887Z,84.54
2019-01-17T20:33:48.936Z,85.19
2019-01-17T20:36:52.854Z,85.02
2019-01-17T20:39:56.819Z,84.63
2019-01-17T20:43:00.784Z,83.85
2019-01-17T20:46:04.749Z,83.70
2019-01-17T20:49:08.533Z,83.09
2019-01-17T20:52:12.429Z,82.85
2019-01-17T20:55:16.412Z,83.06
2019-01-17T20:58:20.411Z,82.77
2019-01-17T21:01:42.322Z,82.87
2019-01-17T21:04:46.199Z,82.92
2019-01-17T21:07:50.071Z,82.73
2019-01-17T21:10:53.950Z,82.93
2019-01-17T21:13:57.841Z,82.11
2019-01-17T21:17:01.725Z,81.32
2019-01-17T21:20:06.345Z,80.81
2019-01-17T21:23:10.178Z,79.40
2019-01-17T21:26:14.051Z,78.79
2019-01-17T21:29:17.963Z,79.00
2019-01-17T21:32:21.814Z,78.73
2019-01-17T21:35:25.734Z,79.05
2019-01-17T21:38:29.584Z,79.52
2019-01-17T21:41:33.467Z,79.25
2019-01-17T21:44:37.322Z,79.92
2019-01-17T21:47:41.385Z,80.07
2019-01-17T21:50:45.242Z,80.10
2019-01-17T21:53:49.154Z,79.53
2019-01-17T21:56:53.029Z,79.38
2019-01-17T21:59:56.928Z,78.70
2019-01-17T22:03:00.711Z,78.23
2019-01-17T22:06:04.860Z,79.26
2019-01-17T22:09:08.946Z,79.43
2019-01-17T22:12:12.824Z,80.19
2019-01-17T22:15:21.469Z,80.55
2019-01-17T22:18:25.346Z,80.25
2019-01-17T22:21:29.299Z,80.15
2019-01-17T22:24:33.178Z,80.23
2019-01-17T22:27:37.066Z,79.75
2019-01-17T22:30:41.031Z,80.14
2019-01-17T22:33:45.009Z,80.34
2019-01-17T22:36:48.970Z,80.10
2019-01-17T22:39:52.869Z,80.04
2019-01-17T22:42:56.843Z,80.61
2019-01-17T22:46:00.724Z,80.58
2019-01-17T22:49:04.614Z,80.79
2019-01-17T22:52:08.646Z,80.71
2019-01-17T22:55:12.609Z,80.89
2019-01-17T22:58:16.408Z,80.86
2019-01-17T23:01:26.394Z,80.85
2019-01-17T23:04:30.373Z,80.74
2019-01-17T23:07:34.196Z,81.26
2019-01-17T23:10:38.259Z,80.70
2019-01-17T23:13:42.138Z,81.00
2019-01-17T23:16:46.039Z,80.81
2019-01-17T23:19:50.027Z,80.70
2019-01-17T23:22:54.017Z,80.90
2019-01-17T23:25:57.872Z,80.95
2019-01-17T23:29:01.746Z,80.81
2019-01-17T23:32:05.708Z,80.88
2019-01-17T23:35:09.796Z,80.89
2019-01-17T23:38:13.672Z,80.71
2019-01-17T23:41:17.623Z,80.60
2019-01-17T23:44:21.614Z,80.73
2019-01-17T23:47:25.592Z,80.05
2019-01-17T23:50:29.473Z,79.43
2019-01-17T23:53:33.352Z,79.54
2019-01-17T23:56:37.243Z,79.54
2019-01-17T23:59:41.144Z,79.82
